Time;durP1;ratioP1;P1;durP2;ratioP2;P2;SDS_P1;SDS_P2;PMS_P1;PMS_P2;Temp;Humidity;BMP_temperature;BMP_pressure;BME280_temperature;BME280_humidity;BME280_pressure;Samples;Min_cycle;Max_cycle;Signal;HPM_P1;HPM_P2
2022/05/09 12:30:54;;;;;;;0.10;0.10;;;;;;;23.96;58.43;101733.28;2421969;54;50760;-65
2022/05/09 12:33:32;;;;;;;0.25;0.25;;;;;;;24.19;55.53;101726.56;2617917;47;20152;-63
2022/05/09 12:36:08;;;;;;;0.20;0.20;;;;;;;23.90;56.60;101716.22;2616301;47;20417;-63
2022/05/09 12:38:41;;;;;;;0.30;0.25;;;;;;;23.58;57.30;101721.22;2617919;47;20187;-63
2022/05/09 12:41:15;;;;;;;0.00;0.00;;;;;;;24.09;55.96;101720.47;2618045;54;20134;-64
2022/05/09 12:43:51;;;;;;;0.10;0.10;;;;;;;24.86;54.21;101714.34;2618158;54;20153;-64
2022/05/09 12:46:28;;;;;;;0.25;0.15;;;;;;;25.15;52.27;101717.44;2617874;47;20768;-64
2022/05/09 12:49:01;;;;;;;0.32;0.30;;;;;;;25.22;50.87;101697.19;2618013;39;20794;-64
2022/05/09 12:51:35;;;;;;;0.20;0.20;;;;;;;25.29;51.15;101711.47;2619786;39;20569;-63
2022/05/09 12:54:10;;;;;;;0.22;0.22;;;;;;;25.44;50.54;101703.69;2692658;36;20767;-64
2022/05/09 12:56:48;;;;;;;0.00;0.00;;;;;;;26.06;50.65;101696.91;2616376;39;20568;-64
2022/05/09 12:59:19;;;;;;;0.03;0.03;;;;;;;25.45;51.50;101702.69;2616470;47;20324;-64
2022/05/09 13:01:58;;;;;;;0.10;0.10;;;;;;;25.54;50.95;101699.09;2618347;54;20145;-65
2022/05/09 13:04:49;;;;;;;0.35;0.35;;;;;;;26.18;49.54;101694.72;2618316;47;20148;-65
2022/05/09 13:07:20;;;;;;;0.03;0.03;;;;;;;25.64;50.36;101693.63;2617951;47;20144;-65
2022/05/09 13:09:53;;;;;;;0.28;0.22;;;;;;;25.42;48.57;101695.06;2618313;47;20193;-64
2022/05/09 13:12:28;;;;;;;0.38;0.38;;;;;;;25.21;50.49;101698.16;2618691;54;20717;-64
2022/05/09 13:15:01;;;;;;;0.20;0.20;;;;;;;25.70;47.99;101693.78;2618087;54;20133;-64
2022/05/09 13:17:38;;;;;;;1.38;1.13;;;;;;;26.16;47.87;101692.22;2619354;46;20699;-65
2022/05/09 13:20:13;;;;;;;0.00;0.00;;;;;;;25.64;48.80;101683.00;2618359;54;20153;-64
2022/05/09 13:22:48;;;;;;;16.00;0.60;;;;;;;25.21;49.45;101687.53;2618672;39;20597;-64
2022/05/09 13:25:32;;;;;;;1.35;0.47;;;;;;;24.73;51.17;101682.06;2619189;39;20563;-63
2022/05/09 13:28:05;;;;;;;0.68;0.68;;;;;;;24.93;51.86;101678.19;2619860;39;20521;-63
2022/05/09 13:30:39;;;;;;;0.00;0.00;;;;;;;25.71;50.65;101687.47;2618136;54;20173;-64
2022/05/09 13:33:19;;;;;;;0.00;0.00;;;;;;;25.87;49.05;101682.13;2618635;54;20141;-64
2022/05/09 13:35:51;;;;;;;0.52;0.20;;;;;;;25.53;48.61;101676.16;2618895;54;20680;-65
2022/05/09 13:38:23;;;;;;;0.10;0.10;;;;;;;25.82;48.33;101680.97;2619294;54;20149;-65
2022/05/09 13:40:56;;;;;;;1.45;0.43;;;;;;;24.84;50.14;101673.78;2619255;54;20134;-64
2022/05/09 13:43:30;;;;;;;0.80;0.65;;;;;;;23.98;50.96;101673.84;2619423;54;20266;-65
2022/05/09 13:46:05;;;;;;;0.65;0.35;;;;;;;24.67;50.98;101676.38;2619413;54;20153;-65
2022/05/09 13:48:39;;;;;;;0.00;0.00;;;;;;;25.71;47.79;101678.66;2617909;54;20141;-65
2022/05/09 13:51:10;;;;;;;0.45;0.45;;;;;;;24.80;48.16;101670.63;2618079;54;20145;-65
2022/05/09 13:53:51;;;;;;;0.00;0.00;;;;;;;24.27;49.47;101655.00;2618088;54;20141;-64
2022/05/09 13:56:26;;;;;;;0.08;0.08;;;;;;;23.96;49.63;101667.00;2618293;54;20141;-64
2022/05/09 13:59:19;;;;;;;0.93;0.47;;;;;;;24.33;48.71;101666.78;2618285;54;20141;-64
2022/05/09 14:01:53;;;;;;;0.75;0.15;;;;;;;24.36;48.93;101659.34;2618745;39;20557;-65
2022/05/09 14:04:26;;;;;;;1.10;0.75;;;;;;;23.68;52.08;101667.16;2618249;54;20142;-64
2022/05/09 14:06:57;;;;;;;0.30;0.30;;;;;;;24.20;50.04;101661.91;2619603;54;20220;-64
2022/05/09 14:09:30;;;;;;;0.25;0.25;;;;;;;23.91;52.29;101654.25;2618126;39;20544;-64
2022/05/09 14:12:03;;;;;;;0.35;0.25;;;;;;;23.07;53.35;101661.75;2617046;47;20145;-64
2022/05/09 14:14:38;;;;;;;0.38;0.38;;;;;;;23.29;52.74;101663.13;2617051;54;20165;-63
2022/05/09 14:17:13;;;;;;;1.10;1.00;;;;;;;24.38;51.13;101653.88;2617094;54;20141;-64
2022/05/09 14:19:51;;;;;;;0.47;0.47;;;;;;;24.20;50.78;101660.09;2617062;54;20149;-64
2022/05/09 14:22:25;;;;;;;0.10;0.10;;;;;;;24.18;51.47;101656.78;2617436;54;20141;-64
2022/05/09 14:30:42;;;;;;;0.60;0.60;;;;;;;24.45;49.79;101644.28;2617964;54;20172;-64
2022/05/09 14:33:35;;;;;;;0.43;0.32;;;;;;;24.16;50.50;101657.91;2618619;39;20572;-63
2022/05/09 14:36:29;;;;;;;0.30;0.30;;;;;;;24.33;51.52;101654.34;2618794;39;20631;-65
2022/05/09 14:39:29;;;;;;;0.30;0.30;;;;;;;23.94;49.59;101659.25;2618858;39;20557;-65
2022/05/09 14:42:14;;;;;;;0.45;0.45;;;;;;;24.35;50.74;101652.38;2618357;54;20674;-64
2022/05/09 14:44:46;;;;;;;0.20;0.20;;;;;;;23.89;50.96;101650.91;2618168;54;20141;-64
2022/05/09 14:47:23;;;;;;;0.30;0.30;;;;;;;24.44;48.77;101651.41;2618317;54;20694;-64
2022/05/09 14:50:10;;;;;;;0.13;0.13;;;;;;;24.17;51.97;101655.09;2618155;54;20142;-64
2022/05/09 14:52:50;;;;;;;0.70;0.65;;;;;;;23.91;52.26;101658.72;2618341;47;20150;-64
2022/05/09 14:58:10;;;;;;;0.20;0.20;;;;;;;24.69;48.26;101642.56;2618295;54;20141;-64
2022/05/09 15:00:42;;;;;;;0.95;0.95;;;;;;;24.17;50.40;101644.50;2618260;54;20142;-64
2022/05/09 15:03:21;;;;;;;0.22;0.08;;;;;;;24.78;50.41;101651.41;2618123;54;20146;-64
2022/05/09 15:05:52;;;;;;;0.40;0.38;;;;;;;24.78;49.40;101654.06;2617726;54;20142;-64
2022/05/09 15:08:26;;;;;;;1.45;0.40;;;;;;;24.06;50.85;101647.38;2618680;54;20677;-67
2022/05/09 15:10:58;;;;;;;0.10;0.10;;;;;;;23.99;51.75;101646.31;2618337;54;20229;-65
2022/05/09 15:13:30;;;;;;;0.15;0.15;;;;;;;24.41;51.49;101638.47;2618425;54;20146;-63
2022/05/09 15:16:08;;;;;;;0.20;0.20;;;;;;;24.62;51.63;101633.59;2618432;54;20141;-62
2022/05/09 15:18:38;;;;;;;0.28;0.25;;;;;;;24.27;50.38;101617.03;2617860;54;20141;-64
2022/05/09 15:21:09;;;;;;;0.00;0.00;;;;;;;24.73;50.75;101613.03;2618774;54;20168;-63
2022/05/09 15:23:42;;;;;;;1.13;0.68;;;;;;;24.71;49.84;101627.28;2619211;54;20274;-63
2022/05/09 15:26:14;;;;;;;0.57;0.35;;;;;;;24.45;49.04;101623.06;2618926;54;20188;-64
2022/05/09 15:28:48;;;;;;;0.75;0.17;;;;;;;24.58;49.74;101618.16;2617366;47;20137;-64
2022/05/09 15:31:20;;;;;;;0.22;0.20;;;;;;;24.13;52.02;101621.06;2617645;54;20682;-64
2022/05/09 15:33:50;;;;;;;0.28;0.15;;;;;;;24.06;52.07;101618.22;2617403;47;20141;-64
2022/05/09 15:36:20;;;;;;;0.63;0.32;;;;;;;24.15;53.33;101621.78;2617323;54;20145;-64
2022/05/09 15:38:53;;;;;;;0.60;0.43;;;;;;;25.10;52.50;101616.13;2619161;54;20164;-63
2022/05/09 15:41:26;;;;;;;0.57;0.40;;;;;;;23.86;54.14;101613.28;2617752;54;20148;-64
2022/05/09 15:44:02;;;;;;;0.15;0.15;;;;;;;24.44;54.34;101616.91;2617224;54;20145;-65
2022/05/09 15:46:34;;;;;;;0.47;0.47;;;;;;;24.15;53.98;101611.16;2616324;54;20188;-64
2022/05/09 15:49:15;;;;;;;0.57;0.57;;;;;;;24.03;54.40;101607.09;2616608;54;20144;-64
2022/05/09 15:51:45;;;;;;;0.63;0.45;;;;;;;24.21;53.67;101603.41;2616684;54;20156;-65
2022/05/09 15:54:18;;;;;;;0.10;0.10;;;;;;;24.18;53.74;101609.03;2616906;47;20157;-64
2022/05/09 15:56:48;;;;;;;0.15;0.15;;;;;;;24.13;54.05;101607.78;2616177;54;20662;-64
2022/05/09 15:59:23;;;;;;;0.10;0.10;;;;;;;24.04;54.34;101606.09;2616875;54;20138;-64
2022/05/09 16:01:53;;;;;;;1.65;0.28;;;;;;;24.56;53.76;101612.97;2618940;39;20597;-64
2022/05/09 16:04:23;;;;;;;0.35;0.35;;;;;;;23.83;55.55;101605.66;2617578;39;20574;-64
2022/05/09 16:12:22;;;;;;;0.00;0.00;;;;;;;23.67;57.04;101604.53;2616502;54;20145;-63
2022/05/09 16:14:53;;;;;;;0.20;0.20;;;;;;;23.43;58.86;101612.28;2616314;54;20145;-65
2022/05/09 16:17:24;;;;;;;0.13;0.13;;;;;;;23.10;58.84;101607.69;2617234;54;20164;-64
2022/05/09 16:19:58;;;;;;;0.28;0.28;;;;;;;23.11;59.78;101606.69;2616984;54;20138;-65
2022/05/09 16:22:31;;;;;;;0.82;0.82;;;;;;;22.97;59.99;101609.84;2616500;54;20137;-66
2022/05/09 16:25:05;;;;;;;0.10;0.10;;;;;;;22.97;62.19;101610.69;2616794;54;20142;-64
2022/05/09 16:27:40;;;;;;;0.40;0.40;;;;;;;22.91;61.58;101608.63;2616982;54;20240;-65
2022/05/09 16:30:16;;;;;;;0.75;0.55;;;;;;;22.17;63.77;101607.91;2617034;54;20145;-64
2022/05/09 16:32:47;;;;;;;0.35;0.35;;;;;;;22.02;66.20;101610.19;2617085;54;20164;-65
2022/05/09 16:35:19;;;;;;;0.43;0.10;;;;;;;22.13;68.98;101610.00;2617048;54;20145;-64
2022/05/09 16:37:50;;;;;;;0.45;0.45;;;;;;;21.30;72.60;101617.78;2617091;54;20662;-64
2022/05/09 16:40:24;;;;;;;0.22;0.17;;;;;;;20.60;80.42;101624.00;2617723;54;20182;-64
2022/05/09 16:42:54;;;;;;;0.95;0.95;;;;;;;20.54;87.59;101625.38;2617758;54;20134;-64
2022/05/09 16:45:27;;;;;;;3.72;2.08;;;;;;;20.14;92.40;101621.84;2617804;50;20662;-64
2022/05/09 16:47:57;;;;;;;0.13;0.13;;;;;;;20.49;88.98;101618.84;2617497;54;20149;-64
2022/05/09 16:50:30;;;;;;;0.50;0.50;;;;;;;19.78;93.26;101622.34;2617724;54;20141;-63
2022/05/09 16:53:00;;;;;;;0.20;0.20;;;;;;;19.69;97.75;101626.59;2618544;54;20185;-64
2022/05/09 16:55:33;;;;;;;0.10;0.10;;;;;;;19.41;100.00;101627.16;2618289;54;20168;-64
2022/05/09 16:58:05;;;;;;;0.55;0.55;;;;;;;18.52;100.00;101627.38;2618579;47;20134;-63
2022/05/09 17:00:35;;;;;;;1.08;0.43;;;;;;;17.94;100.00;101639.72;2618441;54;20159;-65
2022/05/09 17:03:06;;;;;;;4.47;1.13;;;;;;;17.87;100.00;101637.69;2618612;54;20141;-63
2022/05/09 17:05:36;;;;;;;0.45;0.30;;;;;;;17.61;100.00;101627.34;2618724;47;20148;-63
2022/05/09 17:08:07;;;;;;;0.15;0.15;;;;;;;17.73;100.00;101636.13;2618697;54;20146;-63
2022/05/09 17:10:41;;;;;;;0.22;0.22;;;;;;;17.45;100.00;101637.31;2620038;39;20555;-63
2022/05/09 17:13:14;;;;;;;0.50;0.50;;;;;;;17.19;100.00;101644.44;2618615;54;20682;-64
2022/05/09 17:15:47;;;;;;;0.17;0.17;;;;;;;17.26;100.00;101636.97;2618131;54;20134;-64
2022/05/09 17:18:17;;;;;;;0.32;0.32;;;;;;;17.07;100.00;101626.97;2619528;54;20154;-63
2022/05/09 17:20:47;;;;;;;0.35;0.35;;;;;;;17.12;100.00;101643.22;2619220;47;20149;-63
2022/05/09 17:23:17;;;;;;;0.30;0.30;;;;;;;16.87;100.00;101651.16;2618468;54;20145;-63
2022/05/09 17:25:53;;;;;;;0.17;0.17;;;;;;;16.74;100.00;101640.72;2618429;47;20272;-64
2022/05/09 17:28:30;;;;;;;0.00;0.00;;;;;;;16.82;100.00;101633.13;2619132;54;20141;-64
2022/05/09 17:31:00;;;;;;;0.00;0.00;;;;;;;16.96;100.00;101642.66;2618802;54;20310;-63
2022/05/09 17:33:31;;;;;;;0.90;0.88;;;;;;;16.69;100.00;101647.25;2620153;54;20142;-63
2022/05/09 17:38:46;;;;;;;0.35;0.35;;;;;;;16.39;100.00;101661.50;2618865;54;20662;-64
2022/05/09 17:41:22;;;;;;;0.20;0.20;;;;;;;16.30;100.00;101656.03;2618353;54;20173;-65
2022/05/09 17:43:53;;;;;;;0.10;0.10;;;;;;;16.21;100.00;101667.97;2618388;47;20666;-65
2022/05/09 17:46:30;;;;;;;1.80;1.35;;;;;;;16.34;100.00;101663.59;2618013;54;20271;-64
2022/05/09 17:49:01;;;;;;;0.00;0.00;;;;;;;16.52;100.00;101669.34;2618323;54;20642;-64
2022/05/09 17:51:34;;;;;;;0.10;0.10;;;;;;;16.51;100.00;101669.44;2618046;54;20679;-65
2022/05/09 17:54:04;;;;;;;0.20;0.20;;;;;;;16.26;100.00;101678.16;2618319;54;20149;-66
2022/05/09 17:56:38;;;;;;;0.10;0.10;;;;;;;16.08;100.00;101677.63;2618523;54;20142;-65
2022/05/09 17:59:12;;;;;;;1.00;0.52;;;;;;;16.07;100.00;101680.34;2619271;47;20195;-66
2022/05/09 18:01:46;;;;;;;0.20;0.05;;;;;;;16.13;100.00;101675.50;2619074;54;20233;-65
2022/05/09 18:04:17;;;;;;;0.30;0.30;;;;;;;16.15;100.00;101678.88;2619271;54;20693;-66
2022/05/09 18:06:47;;;;;;;0.00;0.00;;;;;;;16.25;100.00;101685.16;2619456;46;20309;-65
2022/05/09 18:09:18;;;;;;;0.85;0.20;;;;;;;16.13;100.00;101680.75;2619160;39;20607;-64
2022/05/09 18:11:53;;;;;;;3.00;2.85;;;;;;;16.25;100.00;101661.59;2619175;47;20142;-65
2022/05/09 18:14:27;;;;;;;1.03;1.03;;;;;;;16.16;100.00;101688.44;2618997;54;20145;-64
2022/05/09 18:17:00;;;;;;;0.40;0.22;;;;;;;16.01;100.00;101686.81;2619142;47;20164;-65
2022/05/09 18:19:33;;;;;;;0.00;0.00;;;;;;;16.25;100.00;101685.16;2619407;39;20603;-65
2022/05/09 18:22:07;;;;;;;0.00;0.00;;;;;;;16.28;100.00;101694.59;2618866;47;20670;-65
2022/05/09 18:24:41;;;;;;;0.70;0.70;;;;;;;16.26;100.00;101696.47;2618051;54;20167;-65
2022/05/09 18:27:15;;;;;;;0.20;0.20;;;;;;;16.23;100.00;101694.91;2618292;46;20151;-65
2022/05/09 18:29:45;;;;;;;0.00;0.00;;;;;;;16.19;100.00;101690.81;2618088;54;20149;-64
2022/05/09 18:32:16;;;;;;;0.28;0.28;;;;;;;16.14;100.00;101698.16;2618518;47;20578;-65
2022/05/09 18:34:47;;;;;;;0.00;0.00;;;;;;;16.26;100.00;101696.47;2618545;54;20141;-65
2022/05/09 18:37:24;;;;;;;0.50;0.50;;;;;;;15.83;100.00;101696.75;2618471;54;20156;-64
2022/05/09 18:40:02;;;;;;;0.10;0.10;;;;;;;15.78;100.00;101705.81;2618269;54;20141;-64
2022/05/09 18:42:39;;;;;;;0.00;0.00;;;;;;;15.92;100.00;101703.16;2618003;54;20153;-64
2022/05/09 18:45:11;;;;;;;0.13;0.13;;;;;;;16.00;100.00;101700.88;2617557;54;20141;-64
2022/05/09 18:47:42;;;;;;;0.00;0.00;;;;;;;16.03;100.00;101700.66;2618578;39;20703;-64
2022/05/09 18:52:57;;;;;;;0.10;0.10;;;;;;;16.01;100.00;101705.13;2617632;47;20142;-64
2022/05/09 18:55:33;;;;;;;0.00;0.00;;;;;;;16.15;100.00;101707.69;2617731;47;20161;-64
2022/05/09 18:58:08;;;;;;;0.00;0.00;;;;;;;16.33;100.00;101713.44;2617817;54;20141;-64
2022/05/09 19:00:41;;;;;;;0.00;0.00;;;;;;;16.52;100.00;101710.44;2618554;54;20142;-64
2022/05/09 19:03:12;;;;;;;0.00;0.00;;;;;;;16.34;100.00;101715.13;2618436;39;20545;-63
2022/05/09 19:05:46;;;;;;;0.00;0.00;;;;;;;16.25;100.00;101715.75;2619214;54;20148;-66
2022/05/09 19:08:32;;;;;;;0.00;0.00;;;;;;;16.53;100.00;101714.72;2619016;54;20253;-66
2022/05/09 19:11:05;;;;;;;0.00;0.00;;;;;;;16.46;100.00;101716.91;2619698;54;20988;-64
2022/05/09 19:13:43;;;;;;;0.00;0.00;;;;;;;15.96;100.00;101719.50;2619715;54;20172;-64
2022/05/09 19:16:21;;;;;;;0.17;0.17;;;;;;;15.72;100.00;101717.56;2618618;47;20150;-64
2022/05/09 19:18:52;;;;;;;0.10;0.10;;;;;;;15.58;100.00;101724.59;2617989;54;20155;-64
2022/05/09 19:21:26;;;;;;;0.47;0.47;;;;;;;15.47;100.00;101722.66;2618282;54;20179;-64
2022/05/09 19:23:58;;;;;;;1.20;0.80;;;;;;;14.81;100.00;101728.56;2618421;54;20144;-65
2022/05/09 19:26:31;;;;;;;0.73;0.73;;;;;;;14.77;100.00;101727.06;2618329;54;20181;-65
2022/05/09 19:29:05;;;;;;;0.97;0.77;;;;;;;14.71;100.00;101724.00;2618347;54;20188;-65
2022/05/09 19:31:38;;;;;;;0.40;0.40;;;;;;;14.59;100.00;101730.81;2618029;47;20176;-64
2022/05/09 19:34:11;;;;;;;1.00;0.77;;;;;;;14.38;100.00;101722.47;2618126;54;20146;-65
2022/05/09 19:36:41;;;;;;;0.33;0.33;;;;;;;14.38;100.00;101730.31;2618012;54;20145;-65
2022/05/09 19:39:11;;;;;;;2.23;0.40;;;;;;;14.44;100.00;101719.50;2618029;54;20142;-67
2022/05/09 19:41:44;;;;;;;0.97;0.97;;;;;;;14.58;100.00;101715.22;2618134;54;20754;-65
2022/05/09 19:44:23;;;;;;;0.27;0.27;;;;;;;14.67;100.00;101717.28;2618252;54;20142;-65
2022/05/09 19:46:54;;;;;;;0.25;0.25;;;;;;;14.68;100.00;101727.66;2617406;47;20156;-65
2022/05/09 19:49:28;;;;;;;6.33;5.83;;;;;;;14.74;100.00;101726.41;2617637;54;20152;-64
2022/05/09 19:54:41;;;;;;;0.03;0.03;;;;;;;14.81;100.00;101728.56;2617399;54;20140;-64
2022/05/09 19:57:11;;;;;;;0.87;0.53;;;;;;;14.79;100.00;101725.22;2617508;47;20150;-64
2022/05/09 19:59:44;;;;;;;2.83;0.63;;;;;;;14.56;100.00;101736.22;2617447;54;20150;-65
2022/05/09 20:02:19;;;;;;;0.30;0.30;;;;;;;14.74;100.00;101732.47;2617532;54;20142;-64
2022/05/09 20:04:52;;;;;;;1.50;0.90;;;;;;;14.28;100.00;101734.34;2617750;54;20159;-65
2022/05/09 20:07:22;;;;;;;0.28;0.28;;;;;;;14.48;100.00;101731.44;2617523;54;20149;-65
2022/05/09 20:09:57;;;;;;;0.60;0.60;;;;;;;14.73;100.00;101732.56;2618416;54;20148;-65
2022/05/09 20:12:30;;;;;;;0.47;0.47;;;;;;;14.57;100.00;101729.19;2618292;54;20140;-64
2022/05/09 20:15:04;;;;;;;0.00;0.00;;;;;;;15.09;100.00;101737.28;2618747;54;20145;-65
2022/05/09 20:17:35;;;;;;;0.00;0.00;;;;;;;15.35;100.00;101734.75;2618001;54;20156;-65
2022/05/09 20:20:06;;;;;;;0.77;0.77;;;;;;;15.47;100.00;101730.50;2618798;54;20141;-64
2022/05/09 20:22:39;;;;;;;0.63;0.40;;;;;;;15.72;100.00;101725.41;2617354;54;20146;-64
2022/05/09 20:25:13;;;;;;;0.20;0.20;;;;;;;15.37;100.00;101730.25;2617638;39;20614;-63
2022/05/09 20:30:29;;;;;;;0.00;0.00;;;;;;;15.15;100.00;101726.47;2617500;51;20180;-65
2022/05/09 20:33:00;;;;;;;0.13;0.13;;;;;;;15.31;100.00;101727.19;2617681;54;20150;-65
2022/05/09 20:35:30;;;;;;;0.00;0.00;;;;;;;15.40;100.00;101726.59;2617873;54;20148;-64
2022/05/09 20:38:02;;;;;;;0.00;0.00;;;;;;;15.42;100.00;101720.31;2620371;54;20689;-64
2022/05/09 20:40:34;;;;;;;0.60;0.60;;;;;;;14.97;100.00;101723.22;2618222;54;20148;-64
2022/05/09 20:43:07;;;;;;;0.00;0.00;;;;;;;15.23;100.00;101724.22;2617912;54;20141;-64
2022/05/09 20:45:39;;;;;;;1.03;0.27;;;;;;;15.11;100.00;101720.59;2618058;54;20231;-64
2022/05/09 20:48:11;;;;;;;1.07;1.07;;;;;;;14.46;100.00;101722.88;2617723;54;20149;-64
2022/05/09 20:50:42;;;;;;;1.80;0.73;;;;;;;14.27;100.00;101719.63;2617825;54;20168;-64
2022/05/09 20:53:20;;;;;;;0.10;0.10;;;;;;;14.55;100.00;101726.69;2617955;54;20168;-65
2022/05/09 20:55:51;;;;;;;0.30;0.30;;;;;;;14.64;100.00;101718.31;2617960;54;20145;-64
2022/05/09 20:58:22;;;;;;;1.47;0.90;;;;;;;14.32;100.00;101722.78;2618029;54;20164;-64
2022/05/09 21:00:55;;;;;;;1.30;1.30;;;;;;;14.40;100.00;101725.00;2618022;54;20184;-65
2022/05/09 21:03:26;;;;;;;0.10;0.10;;;;;;;14.61;100.00;101722.84;2618413;54;20180;-65
2022/05/09 21:05:56;;;;;;;0.47;0.47;;;;;;;14.65;100.00;101730.41;2619707;54;20142;-64
2022/05/09 21:08:42;;;;;;;0.20;0.20;;;;;;;14.40;100.00;101736.25;2618271;47;20667;-65
2022/05/09 21:11:13;;;;;;;0.63;0.63;;;;;;;14.36;100.00;101729.53;2618316;39;20527;-65
2022/05/09 21:13:43;;;;;;;1.03;0.77;;;;;;;14.50;100.00;101728.72;2617917;54;20152;-64
2022/05/09 21:16:16;;;;;;;1.97;1.60;;;;;;;14.27;100.00;101735.31;2617734;54;20146;-65
2022/05/09 21:18:46;;;;;;;0.93;0.93;;;;;;;14.27;100.00;101739.69;2617328;54;20134;-65
2022/05/09 21:21:17;;;;;;;0.30;0.30;;;;;;;14.52;100.00;101738.16;2617526;54;20141;-66
2022/05/09 21:23:51;;;;;;;0.70;0.70;;;;;;;14.36;100.00;101733.97;2617989;39;20580;-65
2022/05/09 21:26:23;;;;;;;1.17;1.07;;;;;;;14.42;100.00;101742.25;2617770;39;20607;-65
2022/05/09 21:28:55;;;;;;;2.37;1.07;;;;;;;14.05;100.00;101740.06;2617479;54;20145;-65
2022/05/09 21:31:28;;;;;;;0.77;0.77;;;;;;;14.42;100.00;101739.66;2617826;39;20454;-65
2022/05/09 21:33:58;;;;;;;0.13;0.13;;;;;;;14.35;100.00;101734.88;2617456;54;20693;-65
2022/05/09 21:36:34;;;;;;;1.40;0.30;;;;;;;13.79;100.00;101753.78;2617526;54;20153;-66
2022/05/09 21:41:49;;;;;;;0.10;0.10;;;;;;;13.36;100.00;101739.72;2619054;47;20138;-65
2022/05/09 21:44:22;;;;;;;0.10;0.10;;;;;;;14.02;100.00;101741.09;2618162;54;20993;-65
2022/05/09 21:46:55;;;;;;;0.00;0.00;;;;;;;13.71;100.00;101735.97;2618251;54;20160;-66
2022/05/09 21:49:25;;;;;;;0.20;0.20;;;;;;;13.06;100.00;101734.34;2618230;54;20146;-65
2022/05/09 21:51:56;;;;;;;0.13;0.13;;;;;;;12.58;100.00;101741.22;2618385;54;20133;-65
2022/05/09 21:54:30;;;;;;;0.00;0.00;;;;;;;12.41;100.00;101751.66;2618495;54;20142;-65
2022/05/09 21:57:02;;;;;;;0.13;0.13;;;;;;;12.99;100.00;101744.28;2618459;54;20141;-65
2022/05/09 21:59:33;;;;;;;0.50;0.50;;;;;;;13.92;100.00;101750.38;2618960;39;20539;-64
2022/05/09 22:02:08;;;;;;;0.47;0.30;;;;;;;13.90;100.00;101749.63;2618377;47;20145;-65
2022/05/09 22:04:39;;;;;;;0.43;0.43;;;;;;;14.10;100.00;101740.66;2619076;39;20550;-65
2022/05/09 22:07:11;;;;;;;1.30;0.53;;;;;;;14.39;100.00;101733.75;2618771;39;20541;-65
2022/05/09 22:09:45;;;;;;;0.63;0.60;;;;;;;14.30;100.00;101736.88;2619088;47;20153;-65
2022/05/09 22:12:15;;;;;;;0.00;0.00;;;;;;;14.50;100.00;101731.34;2618659;54;20134;-65
2022/05/09 22:14:46;;;;;;;0.73;0.73;;;;;;;14.41;100.00;101732.72;2618510;54;20164;-65
2022/05/09 22:17:19;;;;;;;0.00;0.00;;;;;;;14.47;100.00;101724.56;2618960;39;20513;-65
2022/05/09 22:19:49;;;;;;;0.53;0.53;;;;;;;14.88;100.00;101718.59;2618439;54;20141;-65
2022/05/09 22:22:21;;;;;;;0.47;0.47;;;;;;;14.73;100.00;101724.72;2618534;54;20141;-64
2022/05/09 22:24:52;;;;;;;2.40;0.70;;;;;;;14.69;100.00;101718.00;2618519;54;20172;-65
2022/05/09 22:27:23;;;;;;;0.43;0.43;;;;;;;15.28;100.00;101724.78;2618081;54;20682;-65
2022/05/09 22:29:53;;;;;;;0.03;0.03;;;;;;;15.17;100.00;101719.34;2618443;54;20181;-65
2022/05/09 22:32:27;;;;;;;0.40;0.40;;;;;;;14.67;100.00;101725.09;2618687;54;20145;-65
2022/05/09 22:34:57;;;;;;;0.00;0.00;;;;;;;14.77;100.00;101726.22;2618514;54;20133;-65
2022/05/09 22:37:31;;;;;;;0.00;0.00;;;;;;;14.99;100.00;101723.97;2618585;54;20147;-66
2022/05/09 22:40:04;;;;;;;0.00;0.00;;;;;;;15.21;100.00;101716.47;2618721;54;20149;-65
2022/05/09 22:42:39;;;;;;;0.67;0.53;;;;;;;15.46;100.00;101716.59;2618796;54;20145;-66
2022/05/09 22:45:17;;;;;;;0.00;0.00;;;;;;;15.24;100.00;101710.22;2618528;54;20137;-65
2022/05/09 22:47:54;;;;;;;0.00;0.00;;;;;;;15.49;100.00;101704.25;2618633;54;20145;-65
2022/05/09 22:50:24;;;;;;;0.10;0.03;;;;;;;15.33;100.00;101702.59;2618535;47;20160;-65
2022/05/09 22:52:55;;;;;;;0.00;0.00;;;;;;;15.12;100.00;101709.22;2618736;54;20161;-65
2022/05/09 22:55:25;;;;;;;0.20;0.20;;;;;;;14.48;100.00;101686.22;2618333;54;20141;-65
2022/05/09 22:57:59;;;;;;;0.30;0.30;;;;;;;14.00;100.00;101705.59;2619408;54;20142;-65
2022/05/09 23:00:30;;;;;;;0.10;0.10;;;;;;;13.91;100.00;101706.13;2619718;54;20141;-65
2022/05/09 23:03:06;;;;;;;0.20;0.20;;;;;;;13.42;100.00;101706.31;2618370;54;20742;-65
2022/05/09 23:05:39;;;;;;;0.90;0.33;;;;;;;13.34;100.00;101705.91;2618360;54;20218;-65
2022/05/09 23:08:10;;;;;;;0.40;0.40;;;;;;;13.37;100.00;101703.09;2618569;54;20138;-64
2022/05/09 23:10:44;;;;;;;0.10;0.10;;;;;;;14.15;100.00;101698.63;2619836;54;20141;-64
2022/05/09 23:13:20;;;;;;;1.40;0.60;;;;;;;14.01;100.00;101689.00;2618298;54;20137;-65
2022/05/09 23:15:50;;;;;;;0.30;0.30;;;;;;;13.84;100.00;101686.56;2617714;54;20141;-64
2022/05/09 23:18:24;;;;;;;0.00;0.00;;;;;;;14.43;100.00;101686.50;2618449;39;20610;-65
2022/05/09 23:20:55;;;;;;;0.00;0.00;;;;;;;15.34;100.00;101685.13;2617902;54;20229;-64
2022/05/09 23:23:26;;;;;;;0.68;0.20;;;;;;;15.29;100.00;101677.59;2618066;47;20278;-64
2022/05/09 23:25:59;;;;;;;0.00;0.00;;;;;;;15.41;100.00;101674.19;2618229;39;20596;-64
2022/05/09 23:28:30;;;;;;;4.33;0.33;;;;;;;15.51;100.00;101674.47;2618377;39;20562;-65
2022/05/09 23:31:03;;;;;;;0.40;0.40;;;;;;;15.84;100.00;101671.41;2618438;39;20577;-64
2022/05/09 23:33:40;;;;;;;0.40;0.40;;;;;;;14.78;100.00;101675.66;2618395;39;20596;-64
2022/05/09 23:36:12;;;;;;;0.93;0.27;;;;;;;14.34;100.00;101670.50;2617927;54;20137;-65
2022/05/09 23:38:42;;;;;;;0.00;0.00;;;;;;;14.21;100.00;101669.53;2618156;54;20674;-65
2022/05/09 23:41:14;;;;;;;0.00;0.00;;;;;;;14.43;100.00;101667.38;2618176;54;20138;-64
2022/05/09 23:43:48;;;;;;;0.00;0.00;;;;;;;14.50;100.00;101666.06;2617925;46;20137;-65
2022/05/09 23:46:19;;;;;;;0.00;0.00;;;;;;;14.81;100.00;101668.47;2617316;54;20141;-64
2022/05/09 23:48:56;;;;;;;0.23;0.10;;;;;;;15.02;100.00;101657.59;2617423;54;20141;-65
2022/05/09 23:51:27;;;;;;;0.00;0.00;;;;;;;14.29;100.00;101656.88;2617705;54;20142;-65
2022/05/09 23:53:57;;;;;;;0.00;0.00;;;;;;;14.44;100.00;101664.66;2617916;54;20137;-65
2022/05/09 23:56:28;;;;;;;0.13;0.07;;;;;;;14.37;100.00;101650.28;2617655;54;20134;-65
2022/05/09 23:58:58;;;;;;;0.07;0.07;;;;;;;14.56;100.00;101654.41;2617787;54;20153;-65
